createdAt,value
2023-04-27T00:02:10.069Z,8.23
2023-04-27T00:04:37.831Z,8.23
2023-04-27T00:07:04.994Z,8.35
2023-04-27T00:09:32.113Z,8.18
2023-04-27T00:11:59.080Z,8.55
2023-04-27T00:14:28.761Z,9.10
2023-04-27T00:16:56.286Z,8.73
2023-04-27T00:19:23.601Z,8.60
2023-04-27T00:21:50.788Z,8.45
2023-04-27T00:24:17.886Z,8.80
2023-04-27T00:26:45.202Z,8.95
2023-04-27T00:29:12.485Z,8.30
2023-04-27T00:31:39.782Z,8.30
2023-04-27T00:34:06.817Z,8.73
2023-04-27T00:36:35.116Z,8.77
2023-04-27T00:39:04.155Z,8.80
2023-04-27T00:41:32.863Z,8.95
2023-04-27T00:43:59.817Z,9.18
2023-04-27T00:46:28.127Z,9.40
2023-04-27T00:48:56.281Z,9.75
2023-04-27T00:51:27.882Z,9.20
2023-04-27T00:53:57.732Z,9.57
2023-04-27T00:56:24.892Z,9.55
2023-04-27T00:58:51.912Z,9.73
2023-04-27T01:01:20.810Z,9.82
2023-04-27T01:03:48.398Z,9.50
2023-04-27T01:06:15.481Z,10.02
2023-04-27T01:08:44.218Z,8.82
2023-04-27T01:11:11.369Z,10.18
2023-04-27T01:13:39.704Z,10.45
2023-04-27T01:16:06.738Z,10.27
2023-04-27T01:18:33.889Z,10.30
2023-04-27T01:21:01.406Z,10.70
2023-04-27T01:23:28.506Z,10.07
2023-04-27T01:25:55.981Z,10.27
2023-04-27T01:28:23.020Z,10.32
2023-04-27T01:30:50.235Z,10.77
2023-04-27T01:33:17.997Z,10.27
2023-04-27T01:35:48.348Z,11.07
2023-04-27T01:38:15.517Z,11.30
2023-04-27T01:40:44.181Z,11.90
2023-04-27T01:43:11.403Z,12.60
2023-04-27T01:46:01.706Z,12.35
2023-04-27T01:48:38.887Z,12.85
2023-04-27T01:51:06.635Z,12.55
2023-04-27T01:53:33.871Z,13.00
2023-04-27T01:56:01.173Z,12.38
2023-04-27T01:58:28.314Z,12.32
2023-04-27T02:00:55.525Z,12.10
2023-04-27T02:03:22.560Z,11.52
2023-04-27T02:05:50.982Z,13.23
2023-04-27T02:08:19.331Z,13.35
2023-04-27T02:10:46.477Z,13.10
2023-04-27T02:13:13.792Z,12.57
2023-04-27T02:15:41.109Z,12.88
2023-04-27T02:18:08.292Z,13.55
2023-04-27T02:20:35.717Z,13.15
2023-04-27T02:23:02.756Z,13.93
2023-04-27T02:25:29.923Z,14.82
2023-04-27T02:27:56.935Z,13.25
2023-04-27T02:30:24.501Z,14.32
2023-04-27T02:32:52.220Z,13.93
2023-04-27T02:35:19.295Z,14.00
2023-04-27T02:37:46.330Z,14.85
2023-04-27T02:40:15.453Z,14.73
2023-04-27T02:42:42.433Z,14.40
2023-04-27T02:45:11.707Z,14.98
2023-04-27T02:47:38.702Z,15.27
2023-04-27T02:50:07.658Z,14.02
2023-04-27T02:52:35.533Z,15.38
2023-04-27T02:55:02.494Z,13.50
2023-04-27T02:57:32.769Z,14.32
2023-04-27T02:59:59.806Z,14.00
2023-04-27T03:02:27.206Z,15.32
2023-04-27T03:04:55.387Z,14.93
2023-04-27T03:07:23.042Z,14.98
2023-04-27T03:09:49.975Z,15.63
2023-04-27T03:12:17.248Z,15.30
2023-04-27T03:14:44.198Z,14.73
2023-04-27T03:17:11.772Z,15.50
2023-04-27T03:19:40.336Z,13.98
2023-04-27T03:22:07.396Z,15.05
2023-04-27T03:24:35.744Z,13.73
2023-04-27T03:27:02.846Z,16.02
2023-04-27T03:29:29.814Z,14.32
2023-04-27T03:31:57.588Z,13.90
2023-04-27T03:34:24.721Z,14.35
2023-04-27T03:36:51.716Z,15.15
2023-04-27T03:39:18.653Z,15.05
2023-04-27T03:41:45.668Z,14.50
2023-04-27T03:44:13.118Z,14.40
2023-04-27T03:46:40.189Z,14.85
2023-04-27T03:49:07.503Z,14.80
2023-04-27T03:51:35.130Z,14.27
2023-04-27T03:54:02.186Z,14.00
2023-04-27T03:56:29.429Z,14.75
2023-04-27T03:58:56.695Z,14.55
2023-04-27T04:01:32.043Z,13.38
2023-04-27T04:03:59.158Z,14.60
2023-04-27T04:06:26.263Z,14.73
2023-04-27T04:08:53.221Z,16.50
2023-04-27T04:11:20.453Z,15.52
2023-04-27T04:13:47.612Z,18.92
2023-04-27T04:16:15.065Z,18.30
2023-04-27T04:18:42.206Z,16.33
2023-04-27T04:21:13.575Z,16.48
2023-04-27T04:23:43.515Z,16.38
2023-04-27T04:26:10.562Z,16.50
2023-04-27T04:28:38.399Z,17.13
2023-04-27T04:31:06.046Z,15.10
2023-04-27T04:33:33.573Z,15.82
2023-04-27T04:36:04.245Z,14.82
2023-04-27T04:38:33.107Z,14.73
2023-04-27T04:41:01.267Z,13.75
2023-04-27T04:43:31.460Z,13.80
2023-04-27T04:45:58.680Z,13.07
2023-04-27T04:48:25.870Z,12.55
2023-04-27T04:50:53.045Z,12.55
2023-04-27T04:53:20.304Z,13.80
2023-04-27T04:55:47.451Z,12.60
2023-04-27T04:58:14.516Z,11.75
2023-04-27T05:00:42.494Z,12.60
2023-04-27T05:03:09.683Z,10.93
2023-04-27T05:05:36.746Z,11.13
2023-04-27T05:08:03.832Z,10.52
2023-04-27T05:10:30.847Z,10.05
2023-04-27T05:12:58.005Z,9.95
2023-04-27T05:15:24.891Z,7.68
2023-04-27T05:17:54.370Z,9.35
2023-04-27T05:20:21.628Z,8.45
2023-04-27T05:22:48.982Z,8.63
2023-04-27T05:25:16.161Z,8.15
2023-04-27T05:27:43.207Z,7.20
2023-04-27T05:30:11.320Z,9.10
2023-04-27T05:32:38.726Z,8.43
2023-04-27T05:35:05.959Z,7.65
2023-04-27T05:37:33.026Z,7.75
2023-04-27T05:40:00.177Z,7.28
2023-04-27T05:42:27.269Z,7.30
2023-04-27T05:44:54.723Z,7.70
2023-04-27T05:47:24.458Z,6.55
2023-04-27T05:49:55.326Z,7.47
2023-04-27T05:52:22.772Z,7.00
2023-04-27T05:54:50.346Z,7.18
2023-04-27T05:57:17.473Z,6.35
2023-04-27T05:59:44.579Z,7.70
2023-04-27T06:02:12.005Z,7.78
2023-04-27T06:04:39.146Z,6.53
2023-04-27T06:07:10.413Z,6.70
2023-04-27T06:09:38.060Z,6.82
2023-04-27T06:12:05.928Z,7.22
2023-04-27T06:14:34.220Z,6.00
2023-04-27T06:17:01.591Z,6.25
2023-04-27T06:19:28.728Z,5.50
2023-04-27T06:21:55.946Z,6.20
2023-04-27T06:24:23.240Z,5.60
2023-04-27T06:26:50.623Z,5.22
2023-04-27T06:29:20.516Z,4.93
2023-04-27T06:31:47.490Z,4.88
2023-04-27T06:34:14.459Z,4.80
2023-04-27T06:36:42.198Z,4.65
2023-04-27T06:39:09.268Z,5.00
2023-04-27T06:41:36.257Z,4.80
2023-04-27T06:44:03.329Z,4.70
2023-04-27T06:46:30.530Z,4.32
2023-04-27T06:48:57.444Z,3.50
2023-04-27T06:51:24.338Z,3.50
2023-04-27T06:53:51.550Z,4.50
2023-04-27T06:56:18.533Z,3.95
2023-04-27T06:58:45.855Z,3.90
2023-04-27T07:01:12.937Z,3.92
2023-04-27T07:03:40.140Z,3.80
2023-04-27T07:06:07.546Z,3.33
2023-04-27T07:08:34.556Z,4.28
2023-04-27T07:11:01.780Z,3.30
2023-04-27T07:13:30.090Z,3.72
2023-04-27T07:16:01.220Z,3.53
2023-04-27T07:18:28.409Z,3.28
2023-04-27T07:20:58.076Z,3.80
2023-04-27T07:23:25.812Z,3.60
2023-04-27T07:25:52.841Z,3.60
2023-04-27T07:28:19.932Z,3.30
2023-04-27T07:30:47.210Z,3.60
2023-04-27T07:33:14.561Z,4.20
2023-04-27T07:35:42.110Z,4.28
2023-04-27T07:38:09.172Z,4.63
2023-04-27T07:40:36.962Z,4.95
2023-04-27T07:43:04.289Z,5.38
2023-04-27T07:45:34.648Z,5.10
2023-04-27T07:48:02.219Z,5.38
2023-04-27T07:50:30.107Z,5.30
2023-04-27T07:52:57.747Z,5.03
2023-04-27T07:55:25.887Z,5.68
2023-04-27T07:57:53.993Z,5.18
2023-04-27T08:00:22.433Z,5.00
2023-04-27T08:02:50.877Z,5.38
2023-04-27T08:05:18.354Z,4.97
2023-04-27T08:07:46.113Z,4.88
2023-04-27T08:10:15.307Z,5.30
2023-04-27T08:12:42.483Z,5.38
2023-04-27T08:15:10.374Z,5.40
2023-04-27T08:17:39.206Z,4.50
2023-04-27T08:20:07.983Z,6.00
2023-04-27T08:22:35.016Z,5.63
2023-04-27T08:25:04.221Z,4.80
2023-04-27T08:27:31.700Z,5.65
2023-04-27T08:29:58.990Z,5.43
2023-04-27T08:32:25.953Z,5.53
2023-04-27T08:34:53.003Z,5.10
2023-04-27T08:37:19.984Z,5.20
2023-04-27T08:39:48.491Z,4.95
2023-04-27T08:42:16.269Z,5.00
2023-04-27T08:44:44.642Z,5.72
2023-04-27T08:47:12.340Z,4.55
2023-04-27T08:49:41.534Z,5.20
2023-04-27T08:52:15.594Z,6.55
2023-04-27T08:54:43.647Z,5.30
2023-04-27T08:57:11.937Z,5.18
2023-04-27T08:59:44.794Z,4.93
2023-04-27T09:02:21.831Z,4.80
2023-04-27T09:04:49.034Z,4.22
2023-04-27T09:07:18.296Z,4.65
2023-04-27T09:09:46.078Z,5.03
2023-04-27T09:12:21.239Z,5.97
2023-04-27T09:15:03.869Z,5.20
2023-04-27T09:17:34.229Z,4.68
2023-04-27T09:20:09.303Z,5.03
2023-04-27T09:22:47.393Z,4.80
2023-04-27T09:25:32.178Z,4.45
2023-04-27T09:28:00.747Z,4.63
2023-04-27T09:30:29.031Z,4.50
2023-04-27T09:32:58.460Z,3.70
2023-04-27T09:35:28.115Z,4.22
2023-04-27T09:37:56.381Z,3.70
2023-04-27T09:40:30.691Z,3.60
2023-04-27T09:42:59.609Z,3.40
2023-04-27T09:45:26.791Z,2.95
2023-04-27T09:47:54.127Z,3.30
2023-04-27T09:50:22.173Z,3.80
2023-04-27T09:52:49.335Z,3.10
2023-04-27T09:55:24.582Z,4.53
2023-04-27T09:58:15.892Z,3.92
2023-04-27T10:00:48.857Z,4.15
2023-04-27T10:03:28.079Z,4.80
2023-04-27T10:06:28.759Z,4.50
2023-04-27T10:08:57.349Z,4.30
2023-04-27T10:11:39.271Z,4.30
2023-04-27T10:14:08.665Z,4.40
2023-04-27T10:16:55.550Z,4.18
2023-04-27T10:19:24.529Z,4.43
2023-04-27T10:22:03.933Z,3.33
2023-04-27T10:24:36.377Z,4.10
2023-04-27T10:27:05.917Z,4.03
2023-04-27T10:29:42.156Z,4.43
2023-04-27T10:32:21.265Z,3.72
2023-04-27T10:34:49.305Z,4.50
2023-04-27T10:37:16.849Z,4.05
2023-04-27T10:39:49.073Z,4.78
2023-04-27T10:42:29.880Z,4.22
2023-04-27T10:44:58.222Z,4.85
2023-04-27T10:47:42.815Z,5.28
2023-04-27T10:50:14.536Z,4.68
2023-04-27T10:52:46.292Z,4.70
2023-04-27T10:55:15.148Z,4.07
2023-04-27T10:57:52.910Z,4.18
2023-04-27T11:00:49.287Z,4.30
2023-04-27T11:03:19.833Z,4.20
2023-04-27T11:05:48.287Z,4.70
2023-04-27T11:08:21.030Z,4.50
2023-04-27T11:10:50.384Z,4.28
2023-04-27T11:13:22.428Z,4.63
2023-04-27T11:15:52.094Z,4.63
2023-04-27T11:18:20.946Z,5.03
2023-04-27T11:21:07.277Z,5.35
2023-04-27T11:23:38.296Z,5.50
2023-04-27T11:26:17.325Z,4.75
2023-04-27T11:28:57.039Z,4.65
2023-04-27T11:31:24.112Z,4.57
2023-04-27T11:33:52.379Z,5.18
2023-04-27T11:36:21.300Z,4.97
2023-04-27T11:38:48.592Z,5.03
2023-04-27T11:41:16.235Z,5.68
2023-04-27T11:43:47.345Z,5.25
2023-04-27T11:46:14.601Z,4.47
2023-04-27T11:48:41.730Z,4.95
2023-04-27T11:51:10.946Z,4.35
2023-04-27T11:53:42.732Z,5.35
2023-04-27T11:56:11.256Z,4.53
2023-04-27T11:58:39.540Z,4.60
2023-04-27T12:01:07.780Z,4.53
2023-04-27T12:03:35.585Z,4.78
2023-04-27T12:08:32.630Z,4.03
2023-04-27T12:10:59.855Z,4.20
2023-04-27T12:13:27.346Z,4.63
2023-04-27T12:15:54.351Z,4.35
2023-04-27T12:18:21.312Z,4.50
2023-04-27T12:20:48.311Z,4.28
2023-04-27T12:23:15.521Z,4.70
2023-04-27T12:25:44.199Z,4.63
2023-04-27T12:28:12.291Z,4.80
2023-04-27T12:30:41.687Z,4.63
2023-04-27T12:33:11.331Z,5.03
2023-04-27T12:35:38.375Z,4.45
2023-04-27T12:38:05.421Z,4.47
2023-04-27T12:40:33.470Z,4.18
2023-04-27T12:43:01.266Z,4.10
2023-04-27T12:45:28.873Z,4.40
2023-04-27T12:48:03.427Z,4.25
2023-04-27T12:50:32.324Z,4.10
2023-04-27T12:53:00.264Z,4.40
2023-04-27T12:55:33.886Z,4.13
2023-04-27T12:58:02.171Z,4.75
2023-04-27T13:00:29.965Z,4.95
2023-04-27T13:02:57.558Z,4.40
2023-04-27T13:05:24.730Z,4.00
2023-04-27T13:07:51.953Z,5.15
2023-04-27T13:10:18.910Z,3.90
2023-04-27T13:12:46.628Z,3.85
2023-04-27T13:15:13.609Z,4.38
2023-04-27T13:17:42.999Z,3.80
2023-04-27T13:20:11.500Z,4.70
2023-04-27T13:22:40.898Z,3.60
2023-04-27T13:25:09.552Z,3.80
2023-04-27T13:27:36.908Z,3.80
2023-04-27T13:30:05.455Z,3.60
2023-04-27T13:32:32.960Z,4.20
2023-04-27T13:35:00.043Z,3.88
2023-04-27T13:37:27.589Z,3.90
2023-04-27T13:39:54.603Z,3.95
2023-04-27T13:42:24.141Z,3.55
2023-04-27T13:44:51.234Z,3.90
2023-04-27T13:47:18.232Z,5.18
2023-04-27T13:49:45.615Z,4.03
2023-04-27T13:52:12.872Z,3.72
2023-04-27T13:54:40.052Z,3.70
2023-04-27T13:57:06.950Z,4.35
2023-04-27T13:59:33.969Z,4.53
2023-04-27T14:02:00.953Z,4.13
2023-04-27T14:04:28.079Z,3.65
2023-04-27T14:06:55.071Z,3.90
2023-04-27T14:09:24.321Z,3.53
2023-04-27T14:11:57.059Z,4.15
2023-04-27T14:14:24.963Z,3.80
2023-04-27T14:16:53.555Z,3.65
2023-04-27T14:19:21.143Z,4.47
2023-04-27T14:21:52.356Z,3.75
2023-04-27T14:24:19.858Z,4.10
2023-04-27T14:26:47.727Z,3.47
2023-04-27T14:29:15.636Z,3.88
2023-04-27T14:31:43.406Z,3.90
2023-04-27T14:34:11.063Z,3.53
2023-04-27T14:36:38.244Z,4.03
2023-04-27T14:39:06.804Z,3.95
2023-04-27T14:41:33.967Z,4.32
2023-04-27T14:44:01.441Z,3.50
2023-04-27T14:46:28.818Z,3.85
2023-04-27T14:48:56.369Z,4.07
2023-04-27T14:51:23.380Z,3.78
2023-04-27T14:53:50.312Z,3.50
2023-04-27T14:56:17.468Z,3.60
2023-04-27T14:58:44.455Z,3.60
2023-04-27T15:01:11.425Z,3.30
2023-04-27T15:03:38.651Z,3.47
2023-04-27T15:06:06.934Z,3.42
2023-04-27T15:08:34.549Z,3.92
2023-04-27T15:11:03.870Z,3.60
2023-04-27T15:13:31.434Z,3.95
2023-04-27T15:16:01.119Z,4.13
2023-04-27T15:18:28.373Z,4.10
2023-04-27T15:20:56.593Z,4.13
2023-04-27T15:23:24.913Z,4.15
2023-04-27T15:25:56.229Z,3.80
2023-04-27T15:28:23.370Z,3.58
2023-04-27T15:30:50.935Z,5.20
2023-04-27T15:33:18.204Z,3.80
2023-04-27T15:35:45.190Z,3.95
2023-04-27T15:38:13.686Z,4.13
2023-04-27T15:40:40.675Z,4.47
2023-04-27T15:43:07.650Z,4.10
2023-04-27T15:45:34.747Z,3.80
2023-04-27T15:48:02.154Z,4.50
2023-04-27T15:50:29.423Z,4.05
2023-04-27T15:52:56.420Z,4.05
2023-04-27T15:55:23.441Z,4.10
2023-04-27T15:57:50.728Z,6.88
2023-04-27T16:00:19.154Z,4.13
2023-04-27T16:02:46.800Z,3.85
2023-04-27T16:05:14.596Z,4.15
2023-04-27T16:07:43.464Z,4.00
2023-04-27T16:10:11.689Z,4.90
2023-04-27T16:12:39.319Z,4.50
2023-04-27T16:15:10.086Z,4.40
2023-04-27T16:17:38.404Z,4.45
2023-04-27T16:20:09.842Z,4.18
2023-04-27T16:22:38.080Z,4.07
2023-04-27T16:25:13.337Z,4.30
2023-04-27T16:27:40.747Z,4.73
2023-04-27T16:30:08.189Z,4.97
2023-04-27T16:32:35.706Z,4.70
2023-04-27T16:35:03.262Z,5.22
2023-04-27T16:37:32.740Z,4.53
2023-04-27T16:40:01.971Z,5.07
2023-04-27T16:42:31.196Z,4.80
2023-04-27T16:44:59.914Z,4.78
2023-04-27T16:47:27.335Z,4.63
2023-04-27T16:49:54.605Z,5.20
2023-04-27T16:52:21.879Z,4.97
2023-04-27T16:54:48.950Z,4.93
2023-04-27T16:57:16.463Z,5.15
2023-04-27T16:59:43.686Z,5.65
2023-04-27T17:02:23.749Z,5.22
2023-04-27T17:04:52.026Z,5.72
2023-04-27T17:07:19.219Z,6.43
2023-04-27T17:09:46.180Z,7.18
2023-04-27T17:12:14.845Z,6.50
2023-04-27T17:14:42.736Z,5.72
2023-04-27T17:17:10.406Z,5.35
2023-04-27T17:19:37.452Z,5.20
2023-04-27T17:22:04.628Z,7.35
2023-04-27T17:24:31.887Z,6.40
2023-04-27T17:26:58.911Z,6.53
2023-04-27T17:29:25.883Z,6.03
2023-04-27T17:31:53.429Z,5.90
2023-04-27T17:34:21.089Z,6.10
2023-04-27T17:36:48.138Z,5.88
2023-04-27T17:39:15.515Z,7.70
2023-04-27T17:41:42.973Z,9.50
2023-04-27T17:44:12.632Z,8.35
2023-04-27T17:46:46.991Z,6.70
2023-04-27T17:49:15.262Z,6.25
2023-04-27T17:51:43.851Z,5.57
2023-04-27T17:54:11.911Z,17.27
2023-04-27T17:56:39.687Z,7.45
2023-04-27T17:59:08.644Z,6.50
2023-04-27T18:01:36.113Z,6.30
2023-04-27T18:04:05.810Z,6.38
2023-04-27T18:06:33.453Z,6.47
2023-04-27T18:09:00.484Z,5.93
2023-04-27T18:11:27.555Z,6.03
2023-04-27T18:13:55.369Z,7.00
2023-04-27T18:16:22.426Z,7.53
2023-04-27T18:18:49.621Z,6.88
2023-04-27T18:21:16.745Z,7.90
2023-04-27T18:23:44.810Z,7.57
2023-04-27T18:26:12.211Z,7.38
2023-04-27T18:28:40.282Z,7.28
2023-04-27T18:31:17.526Z,7.85
2023-04-27T18:33:47.832Z,6.55
2023-04-27T18:36:14.932Z,7.32
2023-04-27T18:38:42.024Z,8.00
2023-04-27T18:41:09.113Z,7.00
2023-04-27T18:43:38.878Z,7.43
2023-04-27T18:46:06.153Z,8.30
2023-04-27T18:48:33.371Z,6.50
2023-04-27T18:51:00.566Z,6.40
2023-04-27T18:53:28.318Z,7.28
2023-04-27T18:55:55.815Z,7.07
2023-04-27T18:58:23.060Z,6.70
2023-04-27T19:00:50.341Z,7.07
2023-04-27T19:03:17.969Z,8.10
2023-04-27T19:05:45.611Z,7.30
2023-04-27T19:08:12.821Z,7.05
2023-04-27T19:10:42.438Z,6.53
2023-04-27T19:13:09.528Z,7.63
2023-04-27T19:15:36.553Z,7.03
2023-04-27T19:18:11.247Z,7.80
2023-04-27T19:20:39.942Z,7.13
2023-04-27T19:23:09.669Z,7.75
2023-04-27T19:25:37.276Z,7.97
2023-04-27T19:28:04.947Z,7.28
2023-04-27T19:30:32.076Z,7.55
2023-04-27T19:32:59.610Z,7.05
2023-04-27T19:35:27.607Z,7.50
2023-04-27T19:37:54.829Z,7.03
2023-04-27T19:40:22.147Z,7.30
2023-04-27T19:42:49.925Z,6.80
2023-04-27T19:45:18.158Z,7.30
2023-04-27T19:47:45.356Z,7.32
2023-04-27T19:50:12.591Z,6.70
2023-04-27T19:52:39.854Z,7.40
2023-04-27T19:55:07.593Z,7.22
2023-04-27T19:57:35.032Z,6.88
2023-04-27T20:00:03.776Z,7.97
2023-04-27T20:02:40.985Z,8.00
2023-04-27T20:05:09.039Z,7.32
2023-04-27T20:07:37.457Z,7.65
2023-04-27T20:10:05.692Z,7.07
2023-04-27T20:12:51.602Z,7.30
2023-04-27T20:15:20.703Z,7.45
2023-04-27T20:17:47.959Z,7.78
2023-04-27T20:20:14.949Z,7.28
2023-04-27T20:22:42.242Z,8.02
2023-04-27T20:25:09.483Z,7.40
2023-04-27T20:27:36.741Z,7.68
2023-04-27T20:30:04.412Z,7.63
2023-04-27T20:32:32.022Z,7.65
2023-04-27T20:35:00.839Z,8.20
2023-04-27T20:37:32.480Z,8.35
2023-04-27T20:40:01.004Z,8.02
2023-04-27T20:42:31.076Z,7.90
2023-04-27T20:44:58.132Z,7.85
2023-04-27T20:47:25.177Z,7.93
2023-04-27T20:49:53.474Z,8.15
2023-04-27T20:52:20.889Z,8.57
2023-04-27T20:54:47.804Z,8.73
2023-04-27T20:57:14.968Z,10.68
2023-04-27T20:59:42.218Z,8.95
2023-04-27T21:02:09.445Z,8.50
2023-04-27T21:04:36.696Z,9.10
2023-04-27T21:07:03.830Z,9.50
2023-04-27T21:09:31.444Z,9.73
2023-04-27T21:11:58.450Z,9.13
2023-04-27T21:14:25.504Z,8.32
2023-04-27T21:16:52.485Z,8.23
2023-04-27T21:19:19.508Z,8.05
2023-04-27T21:21:46.561Z,8.50
2023-04-27T21:24:13.600Z,8.27
2023-04-27T21:26:42.481Z,8.75
2023-04-27T21:29:11.984Z,8.07
2023-04-27T21:31:42.091Z,8.65
2023-04-27T21:34:09.042Z,8.38
2023-04-27T21:36:37.642Z,8.40
2023-04-27T21:39:05.932Z,7.97
2023-04-27T21:41:34.860Z,8.25
2023-04-27T21:44:02.421Z,8.68
2023-04-27T21:46:30.083Z,8.75
2023-04-27T21:48:57.800Z,8.93
2023-04-27T21:51:24.789Z,8.75
2023-04-27T21:53:51.915Z,9.18
2023-04-27T21:56:19.007Z,9.30
2023-04-27T21:58:46.212Z,9.35
2023-04-27T22:01:13.280Z,8.85
2023-04-27T22:03:40.922Z,9.32
2023-04-27T22:06:09.152Z,9.75
2023-04-27T22:08:36.227Z,9.32
2023-04-27T22:11:03.221Z,8.88
2023-04-27T22:13:30.100Z,9.55
2023-04-27T22:15:57.273Z,9.05
2023-04-27T22:18:24.431Z,9.00
2023-04-27T22:20:51.753Z,9.40
2023-04-27T22:23:18.725Z,9.30
2023-04-27T22:25:46.185Z,9.48
2023-04-27T22:28:13.372Z,9.90
2023-04-27T22:30:42.060Z,8.85
2023-04-27T22:33:09.824Z,9.70
2023-04-27T22:35:37.542Z,9.63
2023-04-27T22:38:04.887Z,9.30
2023-04-27T22:40:32.018Z,9.15
2023-04-27T22:42:58.945Z,10.07
2023-04-27T22:45:25.925Z,9.80
2023-04-27T22:47:53.003Z,9.20
2023-04-27T22:50:20.059Z,9.07
2023-04-27T22:52:46.970Z,11.25
2023-04-27T22:55:13.950Z,8.88
2023-04-27T22:57:42.470Z,9.70
2023-04-27T23:00:11.634Z,10.52
2023-04-27T23:02:41.072Z,10.05
2023-04-27T23:05:08.948Z,10.25
2023-04-27T23:07:36.392Z,9.75
2023-04-27T23:10:03.854Z,10.82
2023-04-27T23:12:33.670Z,10.32
2023-04-27T23:15:01.110Z,9.93
2023-04-27T23:17:30.903Z,9.95
2023-04-27T23:20:00.187Z,10.60
2023-04-27T23:22:27.783Z,9.52
2023-04-27T23:24:54.721Z,10.30
2023-04-27T23:27:22.693Z,10.35
2023-04-27T23:29:49.665Z,10.63
2023-04-27T23:32:17.296Z,10.93
2023-04-27T23:34:44.389Z,9.85
2023-04-27T23:37:11.386Z,10.00
2023-04-27T23:39:38.472Z,11.55
2023-04-27T23:42:05.545Z,10.63
2023-04-27T23:44:32.645Z,10.10
2023-04-27T23:46:59.651Z,11.20
2023-04-27T23:49:26.640Z,9.85
2023-04-27T23:51:53.722Z,10.57
2023-04-27T23:54:20.683Z,10.75
2023-04-27T23:56:47.646Z,10.38
2023-04-27T23:59:15.169Z,11.68
